createdAt,value
2018-11-27T00:00:56.083Z,45.37
2018-11-27T00:03:47.124Z,41.73
2018-11-27T00:06:19.506Z,42.17
2018-11-27T00:08:51.049Z,45.43
2018-11-27T00:11:22.497Z,42.90
2018-11-27T00:13:54.018Z,42.03
2018-11-27T00:16:25.508Z,51.77
2018-11-27T00:18:57.049Z,55.13
2018-11-27T00:21:28.531Z,47.47
2018-11-27T00:24:00.049Z,47.10
2018-11-27T00:26:31.566Z,39.57
2018-11-27T00:29:03.024Z,39.47
2018-11-27T00:31:34.513Z,42.97
2018-11-27T00:34:06.014Z,40.57
2018-11-27T00:36:37.651Z,40.83
2018-11-27T00:39:12.485Z,41.53
2018-11-27T00:41:44.272Z,39.87
2018-11-27T00:44:15.724Z,41.03
2018-11-27T00:46:47.166Z,38.10
2018-11-27T00:49:18.701Z,38.50
2018-11-27T00:51:50.155Z,39.83
2018-11-27T00:54:21.622Z,39.77
2018-11-27T00:56:53.109Z,37.43
2018-11-27T00:59:24.577Z,39.13
2018-11-27T01:01:56.031Z,39.07
2018-11-27T01:04:27.677Z,39.27
2018-11-27T01:06:59.240Z,36.27
2018-11-27T01:09:30.735Z,42.50
2018-11-27T01:12:02.276Z,40.83
2018-11-27T01:14:33.882Z,39.30
2018-11-27T01:17:05.320Z,39.17
2018-11-27T01:19:36.890Z,36.63
2018-11-27T01:22:08.360Z,36.97
2018-11-27T01:24:39.859Z,39.10
2018-11-27T01:27:11.443Z,37.13
2018-11-27T01:29:42.962Z,33.10
2018-11-27T01:32:14.450Z,34.50
2018-11-27T01:34:45.987Z,36.53
2018-11-27T01:37:17.623Z,34.63
2018-11-27T01:39:49.089Z,38.30
2018-11-27T01:42:20.600Z,37.33
2018-11-27T01:44:52.062Z,35.67
2018-11-27T01:47:23.530Z,35.17
2018-11-27T01:49:55.017Z,35.90
2018-11-27T01:52:26.519Z,38.27
2018-11-27T01:54:57.965Z,35.17
2018-11-27T01:57:29.426Z,36.87
2018-11-27T02:00:00.984Z,35.53
2018-11-27T02:02:32.747Z,36.87
2018-11-27T02:05:04.312Z,34.77
2018-11-27T02:07:35.832Z,37.20
2018-11-27T02:10:12.388Z,36.63
2018-11-27T02:12:48.262Z,36.93
2018-11-27T02:15:29.561Z,36.83
2018-11-27T02:18:01.101Z,36.80
2018-11-27T02:20:32.742Z,36.13
2018-11-27T02:23:04.303Z,35.90
2018-11-27T02:25:35.785Z,36.33
2018-11-27T02:28:07.700Z,38.17
2018-11-27T02:30:39.181Z,35.40
2018-11-27T02:33:10.724Z,38.33
2018-11-27T02:35:42.544Z,38.80
2018-11-27T02:38:14.099Z,38.33
2018-11-27T02:40:45.609Z,38.03
2018-11-27T02:43:17.136Z,38.23
2018-11-27T02:45:48.618Z,38.97
2018-11-27T02:48:20.062Z,39.17
2018-11-27T02:50:51.575Z,40.10
2018-11-27T02:53:23.122Z,40.57
2018-11-27T02:55:54.626Z,40.40
2018-11-27T02:58:26.064Z,38.77
2018-11-27T03:00:57.555Z,39.47
2018-11-27T03:03:29.092Z,38.63
2018-11-27T03:06:00.804Z,37.40
2018-11-27T03:08:32.331Z,35.93
2018-11-27T03:11:03.806Z,37.90
2018-11-27T03:13:35.269Z,34.93
2018-11-27T03:16:06.849Z,36.37
2018-11-27T03:18:38.385Z,35.27
2018-11-27T03:21:09.852Z,37.47
2018-11-27T03:23:41.319Z,38.63
2018-11-27T03:26:12.758Z,37.33
2018-11-27T03:28:44.281Z,39.70
2018-11-27T03:31:15.768Z,38.53
2018-11-27T03:33:47.218Z,39.27
2018-11-27T03:36:18.765Z,40.33
2018-11-27T03:38:50.325Z,38.87
2018-11-27T03:41:21.777Z,38.03
2018-11-27T03:43:53.297Z,38.07
2018-11-27T03:46:24.772Z,38.03
2018-11-27T03:48:56.307Z,38.43
2018-11-27T03:51:27.845Z,39.20
2018-11-27T03:53:59.415Z,38.73
2018-11-27T03:56:30.922Z,40.17
2018-11-27T03:59:02.565Z,41.93
2018-11-27T04:01:34.017Z,46.43
2018-11-27T04:04:10.018Z,43.37
2018-11-27T04:06:37.949Z,44.43
2018-11-27T04:09:11.079Z,43.53
2018-11-27T04:11:42.654Z,42.70
2018-11-27T04:14:14.151Z,41.43
2018-11-27T04:16:45.653Z,40.20
2018-11-27T04:19:17.210Z,42.40
2018-11-27T04:21:48.686Z,39.20
2018-11-27T04:24:20.151Z,38.73
2018-11-27T04:26:51.610Z,35.43
2018-11-27T04:29:23.060Z,32.77
2018-11-27T04:31:54.621Z,32.40
2018-11-27T04:34:26.069Z,54.47
2018-11-27T04:36:57.565Z,57.40
2018-11-27T04:39:29.023Z,44.47
2018-11-27T04:42:00.624Z,33.93
2018-11-27T04:44:32.314Z,29.63
2018-11-27T04:47:03.953Z,31.13
2018-11-27T04:49:35.419Z,31.53
2018-11-27T04:52:07.425Z,33.17
2018-11-27T04:54:41.565Z,33.83
2018-11-27T04:57:13.062Z,30.33
2018-11-27T04:59:44.542Z,29.53
2018-11-27T05:02:16.054Z,31.83
2018-11-27T05:04:47.516Z,31.23
2018-11-27T05:07:18.989Z,32.53
2018-11-27T05:09:50.556Z,30.80
2018-11-27T05:12:22.156Z,40.67
2018-11-27T05:14:53.730Z,45.70
2018-11-27T05:17:25.223Z,54.50
2018-11-27T05:19:56.674Z,45.60
2018-11-27T05:22:28.160Z,58.13
2018-11-27T05:24:59.731Z,81.23
2018-11-27T05:27:31.321Z,55.77
2018-11-27T05:30:02.791Z,79.13
2018-11-27T05:32:36.320Z,61.50
2018-11-27T05:35:09.662Z,50.63
2018-11-27T05:37:45.381Z,45.47
2018-11-27T05:40:21.071Z,43.10
2018-11-27T05:42:56.681Z,45.00
2018-11-27T05:45:29.257Z,42.33
2018-11-27T05:48:00.897Z,41.93
2018-11-27T05:50:32.417Z,39.70
2018-11-27T05:53:03.954Z,35.77
2018-11-27T05:55:35.578Z,32.93
2018-11-27T05:58:12.131Z,29.63
2018-11-27T06:00:43.696Z,28.00
2018-11-27T06:03:15.290Z,27.30
2018-11-27T06:05:46.807Z,28.90
2018-11-27T06:08:18.287Z,28.07
2018-11-27T06:10:49.957Z,29.10
2018-11-27T06:13:21.477Z,28.40
2018-11-27T06:15:53.022Z,29.40
2018-11-27T06:18:24.680Z,29.30
2018-11-27T06:20:56.126Z,29.93
2018-11-27T06:23:27.795Z,31.10
2018-11-27T06:25:59.243Z,32.40
2018-11-27T06:28:30.856Z,34.07
2018-11-27T06:31:02.347Z,36.13
2018-11-27T06:33:33.943Z,46.77
2018-11-27T06:36:05.894Z,54.07
2018-11-27T06:38:37.738Z,57.53
2018-11-27T06:41:09.223Z,55.30
2018-11-27T06:43:40.774Z,61.50
2018-11-27T06:48:11.252Z,96.10
2018-11-27T06:50:42.861Z,98.07
2018-11-27T06:53:14.420Z,101.40
2018-11-27T06:55:45.936Z,74.30
2018-11-27T06:58:17.386Z,75.37
2018-11-27T07:00:48.948Z,58.53
2018-11-27T07:03:20.390Z,45.03
2018-11-27T07:05:51.884Z,51.80
2018-11-27T07:08:23.497Z,46.47
2018-11-27T07:10:55.116Z,42.30
2018-11-27T07:13:26.973Z,40.80
2018-11-27T07:15:58.529Z,36.97
2018-11-27T07:18:30.350Z,35.77
2018-11-27T07:21:02.004Z,34.30
2018-11-27T07:23:33.470Z,34.00
2018-11-27T07:26:05.007Z,35.07
2018-11-27T07:28:36.626Z,33.07
2018-11-27T07:31:08.379Z,32.63
2018-11-27T07:33:39.899Z,35.43
2018-11-27T07:36:11.351Z,32.37
2018-11-27T07:38:42.905Z,33.63
2018-11-27T07:41:14.473Z,31.60
2018-11-27T07:43:46.113Z,30.97
2018-11-27T07:46:17.850Z,31.30
2018-11-27T07:48:49.301Z,29.80
2018-11-27T07:51:20.802Z,31.60
2018-11-27T07:53:52.426Z,29.97
2018-11-27T07:56:23.932Z,29.73
2018-11-27T07:58:55.523Z,30.53
2018-11-27T08:01:27.207Z,31.03
2018-11-27T08:03:58.660Z,32.70
2018-11-27T08:06:30.256Z,32.00
2018-11-27T08:09:01.838Z,31.43
2018-11-27T08:11:34.346Z,31.47
2018-11-27T08:14:05.842Z,30.13
2018-11-27T08:16:37.340Z,30.40
2018-11-27T08:19:08.914Z,29.80
2018-11-27T08:21:40.405Z,33.23
2018-11-27T08:24:11.979Z,34.00
2018-11-27T08:26:43.426Z,34.07
2018-11-27T08:29:14.950Z,33.10
2018-11-27T08:31:46.448Z,33.73
2018-11-27T08:34:17.886Z,34.53
2018-11-27T08:36:49.349Z,32.10
2018-11-27T08:39:20.820Z,33.90
2018-11-27T08:41:52.326Z,35.27
2018-11-27T08:44:23.841Z,35.47
2018-11-27T08:46:55.352Z,36.37
2018-11-27T08:49:26.803Z,35.23
2018-11-27T08:51:58.283Z,38.93
2018-11-27T08:54:29.740Z,33.90
2018-11-27T08:57:01.253Z,31.83
2018-11-27T08:59:32.943Z,34.10
2018-11-27T09:02:04.482Z,32.83
2018-11-27T09:04:35.994Z,33.90
2018-11-27T09:07:07.598Z,31.67
2018-11-27T09:09:39.076Z,33.70
2018-11-27T09:12:10.699Z,33.93
2018-11-27T09:14:42.585Z,39.77
2018-11-27T09:17:14.040Z,39.80
2018-11-27T09:19:45.476Z,37.90
2018-11-27T09:22:17.083Z,37.70
2018-11-27T09:24:48.597Z,36.13
2018-11-27T09:27:20.138Z,36.03
2018-11-27T09:29:51.687Z,36.57
2018-11-27T09:32:23.389Z,35.90
2018-11-27T09:34:55.008Z,57.40
2018-11-27T09:37:26.670Z,64.80
2018-11-27T09:39:58.311Z,65.33
2018-11-27T09:42:29.755Z,66.00
2018-11-27T09:45:01.216Z,68.03
2018-11-27T09:47:32.873Z,55.87
2018-11-27T09:50:04.368Z,77.13
2018-11-27T09:52:35.977Z,41.70
2018-11-27T09:55:09.800Z,54.43
2018-11-27T09:57:41.510Z,41.17
2018-11-27T10:00:20.502Z,37.73
2018-11-27T10:02:52.970Z,40.73
2018-11-27T10:05:24.460Z,62.23
2018-11-27T10:07:55.904Z,65.37
2018-11-27T10:10:27.535Z,61.63
2018-11-27T10:12:59.042Z,59.00
2018-11-27T10:15:30.909Z,55.20
2018-11-27T10:18:03.194Z,63.40
2018-11-27T10:20:36.315Z,68.37
2018-11-27T10:23:12.272Z,54.67
2018-11-27T10:25:46.670Z,48.60
2018-11-27T10:28:18.217Z,41.63
2018-11-27T10:30:49.698Z,40.17
2018-11-27T10:33:21.287Z,42.07
2018-11-27T10:35:53.820Z,39.20
2018-11-27T10:38:26.430Z,38.23
2018-11-27T10:40:57.590Z,34.83
2018-11-27T10:43:29.197Z,34.97
2018-11-27T10:46:00.793Z,33.13
2018-11-27T10:48:32.316Z,32.50
2018-11-27T10:51:03.822Z,33.63
2018-11-27T10:53:35.382Z,31.10
2018-11-27T10:56:07.668Z,29.30
2018-11-27T10:58:39.198Z,28.67
2018-11-27T11:01:27.804Z,28.10
2018-11-27T11:03:59.266Z,27.77
2018-11-27T11:06:30.779Z,26.07
2018-11-27T11:09:04.038Z,25.83
2018-11-27T11:11:36.764Z,23.47
2018-11-27T11:14:08.503Z,24.57
2018-11-27T11:16:40.217Z,28.10
2018-11-27T11:19:11.683Z,28.23
2018-11-27T11:21:43.279Z,26.50
2018-11-27T11:24:14.797Z,30.13
2018-11-27T11:26:46.307Z,31.73
2018-11-27T11:29:17.781Z,30.73
2018-11-27T11:31:49.415Z,30.67
2018-11-27T11:34:20.957Z,30.67
2018-11-27T11:36:52.531Z,27.67
2018-11-27T11:39:24.035Z,25.57
2018-11-27T11:41:55.731Z,26.27
2018-11-27T11:44:27.342Z,26.10
2018-11-27T11:46:59.049Z,24.33
2018-11-27T11:49:30.721Z,29.83
2018-11-27T11:52:02.488Z,32.20
2018-11-27T11:54:34.072Z,28.27
2018-11-27T11:57:05.866Z,32.50
2018-11-27T11:59:37.470Z,31.43
2018-11-27T12:02:09.752Z,27.40
2018-11-27T12:04:41.474Z,26.90
2018-11-27T12:07:53.576Z,41.00
2018-11-27T12:10:33.742Z,26.20
2018-11-27T12:13:05.531Z,21.10
2018-11-27T12:15:37.283Z,24.23
2018-11-27T12:18:10.065Z,19.43
2018-11-27T12:20:42.314Z,20.47
2018-11-27T12:23:14.219Z,23.07
2018-11-27T12:25:45.714Z,22.43
2018-11-27T12:28:17.350Z,24.17
2018-11-27T12:30:48.957Z,26.60
2018-11-27T12:33:20.472Z,28.23
2018-11-27T12:35:52.919Z,21.20
2018-11-27T12:38:24.401Z,18.17
2018-11-27T12:40:56.447Z,16.90
2018-11-27T12:43:27.983Z,19.20
2018-11-27T12:45:59.433Z,21.97
2018-11-27T12:48:31.068Z,26.57
2018-11-27T12:51:03.521Z,23.83
2018-11-27T12:53:35.020Z,23.60
2018-11-27T12:56:06.529Z,23.97
2018-11-27T12:58:38.120Z,24.00
2018-11-27T13:01:09.779Z,20.90
2018-11-27T13:03:41.358Z,27.47
2018-11-27T13:06:12.877Z,27.33
2018-11-27T13:08:44.533Z,24.97
2018-11-27T13:11:16.019Z,26.70
2018-11-27T13:13:47.534Z,24.63
2018-11-27T13:16:19.115Z,27.43
2018-11-27T13:18:50.639Z,24.53
2018-11-27T13:21:22.128Z,23.17
2018-11-27T13:23:53.883Z,22.77
2018-11-27T13:26:25.444Z,27.93
2018-11-27T13:28:57.054Z,25.37
2018-11-27T13:31:30.152Z,23.27
2018-11-27T13:34:20.787Z,23.20
2018-11-27T13:36:52.538Z,23.83
2018-11-27T13:39:49.245Z,25.27
2018-11-27T13:42:21.209Z,23.33
2018-11-27T13:44:53.992Z,23.07
2018-11-27T13:47:26.469Z,23.60
2018-11-27T13:49:58.555Z,27.43
2018-11-27T13:52:30.559Z,26.40
2018-11-27T13:55:02.843Z,44.40
2018-11-27T13:57:34.881Z,22.73
2018-11-27T14:00:08.468Z,22.97
2018-11-27T14:02:40.356Z,21.30
2018-11-27T14:05:22.249Z,22.90
2018-11-27T14:07:54.517Z,23.63
2018-11-27T14:10:26.585Z,23.37
2018-11-27T14:12:59.098Z,26.57
2018-11-27T14:15:31.531Z,26.40
2018-11-27T14:18:03.976Z,24.27
2018-11-27T14:20:36.655Z,27.00
2018-11-27T14:23:08.747Z,27.53
2018-11-27T14:25:40.264Z,26.00
2018-11-27T14:28:12.668Z,26.70
2018-11-27T14:30:44.166Z,25.50
2018-11-27T14:33:15.665Z,26.97
2018-11-27T14:35:47.166Z,26.43
2018-11-27T14:38:18.695Z,27.60
2018-11-27T14:40:50.235Z,30.97
2018-11-27T14:43:21.751Z,37.23
2018-11-27T14:45:53.397Z,44.57
2018-11-27T14:48:25.066Z,46.30
2018-11-27T14:50:56.723Z,37.50
2018-11-27T14:53:28.359Z,30.00
2018-11-27T14:55:59.939Z,34.67
2018-11-27T14:58:31.435Z,29.10
2018-11-27T15:01:03.072Z,29.63
2018-11-27T15:03:34.583Z,27.43
2018-11-27T15:06:06.163Z,27.00
2018-11-27T15:08:37.633Z,25.93
2018-11-27T15:11:12.782Z,32.37
2018-11-27T15:13:41.918Z,29.03
2018-11-27T15:16:13.355Z,31.30
2018-11-27T15:18:44.909Z,30.43
2018-11-27T15:21:16.491Z,38.23
2018-11-27T15:23:47.988Z,39.43
2018-11-27T15:26:19.508Z,38.40
2018-11-27T15:28:50.952Z,28.77
2018-11-27T15:31:22.667Z,25.03
2018-11-27T15:33:54.287Z,24.43
2018-11-27T15:36:25.787Z,25.37
2018-11-27T15:38:58.053Z,28.80
2018-11-27T15:41:37.879Z,28.93
2018-11-27T15:44:09.356Z,28.23
2018-11-27T15:46:42.147Z,25.73
2018-11-27T15:49:14.504Z,27.67
2018-11-27T15:51:46.056Z,38.60
2018-11-27T15:54:17.504Z,33.40
2018-11-27T15:56:51.019Z,27.73
2018-11-27T15:59:22.514Z,27.83
2018-11-27T16:01:53.974Z,24.63
2018-11-27T16:04:25.526Z,26.30
2018-11-27T16:06:57.028Z,29.23
2018-11-27T16:09:28.622Z,32.50
2018-11-27T16:12:00.068Z,33.57
2018-11-27T16:14:31.783Z,36.63
2018-11-27T16:17:03.338Z,42.97
2018-11-27T16:19:37.764Z,47.67
2018-11-27T16:22:12.336Z,43.10
2018-11-27T16:24:46.099Z,36.13
2018-11-27T16:27:19.410Z,37.80
2018-11-27T16:29:50.325Z,36.20
2018-11-27T16:32:21.798Z,39.60
2018-11-27T16:34:53.337Z,42.07
2018-11-27T16:37:24.901Z,40.47
2018-11-27T16:39:57.425Z,38.00
2018-11-27T16:42:30.727Z,37.47
2018-11-27T16:45:01.244Z,35.30
2018-11-27T16:47:32.869Z,33.53
2018-11-27T16:50:51.057Z,33.47
2018-11-27T16:53:22.520Z,39.03
2018-11-27T16:55:54.066Z,36.77
2018-11-27T16:58:25.563Z,36.50
2018-11-27T17:00:57.062Z,36.13
2018-11-27T17:03:28.698Z,36.77
2018-11-27T17:06:00.745Z,34.73
2018-11-27T17:08:32.210Z,32.70
2018-11-27T17:11:03.769Z,32.33
2018-11-27T17:13:35.341Z,31.17
2018-11-27T17:16:07.176Z,36.03
2018-11-27T17:18:43.268Z,38.63
2018-11-27T17:21:14.880Z,38.77
2018-11-27T17:23:46.409Z,39.93
2018-11-27T17:26:18.074Z,43.80
2018-11-27T17:28:49.733Z,39.70
2018-11-27T17:31:21.475Z,34.30
2018-11-27T17:34:21.444Z,35.20
2018-11-27T17:36:53.104Z,31.27
2018-11-27T17:39:24.620Z,32.13
2018-11-27T17:41:56.276Z,35.60
2018-11-27T17:44:27.975Z,46.77
2018-11-27T17:46:59.683Z,43.73
2018-11-27T17:49:31.396Z,44.50
2018-11-27T17:52:02.972Z,44.57
2018-11-27T17:54:35.424Z,46.87
2018-11-27T17:57:07.248Z,51.27
2018-11-27T17:59:38.806Z,48.33
2018-11-27T18:02:10.638Z,49.27
2018-11-27T18:04:42.264Z,51.00
2018-11-27T18:07:13.861Z,51.90
2018-11-27T18:09:45.315Z,50.60
2018-11-27T18:12:16.832Z,50.17
2018-11-27T18:14:48.488Z,69.00
2018-11-27T18:17:20.264Z,66.50
2018-11-27T18:19:51.732Z,52.37
2018-11-27T18:22:23.201Z,43.93
2018-11-27T18:24:54.701Z,43.40
2018-11-27T18:27:26.216Z,44.63
2018-11-27T18:29:57.783Z,45.77
2018-11-27T18:32:29.411Z,48.83
2018-11-27T18:35:01.040Z,48.73
2018-11-27T18:37:32.933Z,50.43
2018-11-27T18:40:04.473Z,48.30
2018-11-27T18:42:35.936Z,47.63
2018-11-27T18:45:12.339Z,51.43
2018-11-27T18:47:44.159Z,42.93
2018-11-27T18:50:15.925Z,41.10
2018-11-27T18:52:47.800Z,38.83
2018-11-27T18:55:19.247Z,39.10
2018-11-27T18:57:51.102Z,37.27
2018-11-27T19:00:33.191Z,38.40
2018-11-27T19:03:04.972Z,37.30
2018-11-27T19:05:36.479Z,36.13
2018-11-27T19:08:08.263Z,36.70
2018-11-27T19:10:39.900Z,35.37
2018-11-27T19:13:11.498Z,37.03
2018-11-27T19:15:47.556Z,40.30
2018-11-27T19:18:26.582Z,36.37
2018-11-27T19:20:58.055Z,71.13
2018-11-27T19:23:29.697Z,50.87
2018-11-27T19:26:01.227Z,47.97
2018-11-27T19:28:32.708Z,41.67
2018-11-27T19:31:04.258Z,38.60
2018-11-27T19:33:35.800Z,38.27
2018-11-27T19:36:08.779Z,36.63
2018-11-27T19:38:40.255Z,37.97
2018-11-27T19:41:11.996Z,39.87
2018-11-27T19:43:43.636Z,38.60
2018-11-27T19:46:15.178Z,38.73
2018-11-27T19:48:53.246Z,44.70
2018-11-27T19:51:20.265Z,40.07
2018-11-27T19:53:51.715Z,36.63
2018-11-27T19:56:29.563Z,34.53
2018-11-27T19:59:01.149Z,30.57
2018-11-27T20:01:32.722Z,32.60
2018-11-27T20:04:04.232Z,36.23
2018-11-27T20:06:35.800Z,72.73
2018-11-27T20:09:09.997Z,65.10
2018-11-27T20:11:41.677Z,74.77
2018-11-27T20:14:13.221Z,76.60
2018-11-27T20:16:44.808Z,66.27
2018-11-27T20:19:16.421Z,68.40
2018-11-27T20:21:48.004Z,61.67
2018-11-27T20:24:19.555Z,70.77
2018-11-27T20:26:51.299Z,54.53
2018-11-27T20:29:22.792Z,57.07
2018-11-27T20:31:54.292Z,60.50
2018-11-27T20:34:26.664Z,56.60
2018-11-27T20:36:58.232Z,48.90
2018-11-27T20:39:29.820Z,47.37
2018-11-27T20:42:01.391Z,47.20
2018-11-27T20:44:33.081Z,53.60
2018-11-27T20:47:07.466Z,54.87
2018-11-27T20:49:37.190Z,50.53
2018-11-27T20:52:08.826Z,50.20
2018-11-27T20:54:40.325Z,54.43
2018-11-27T20:57:11.958Z,66.23
2018-11-27T20:59:43.540Z,58.27
2018-11-27T21:02:15.194Z,59.53
2018-11-27T21:04:46.711Z,62.97
2018-11-27T21:07:18.162Z,66.67
2018-11-27T21:09:49.700Z,68.83
2018-11-27T21:12:21.180Z,58.53
2018-11-27T21:14:52.746Z,59.23
2018-11-27T21:17:24.188Z,55.47
2018-11-27T21:19:55.998Z,55.60
2018-11-27T21:25:23.114Z,56.57
2018-11-27T21:28:18.269Z,57.40
2018-11-27T21:30:51.676Z,55.33
2018-11-27T21:33:23.137Z,55.67
2018-11-27T21:35:54.781Z,57.03
2018-11-27T21:38:26.352Z,55.20
2018-11-27T21:40:57.886Z,58.27
2018-11-27T21:43:29.454Z,66.17
2018-11-27T21:46:01.013Z,60.87
2018-11-27T21:48:32.572Z,71.50
2018-11-27T21:51:04.121Z,80.00
2018-11-27T21:53:35.703Z,78.07
2018-11-27T21:56:07.742Z,65.27
2018-11-27T21:58:39.853Z,62.73
2018-11-27T22:01:11.346Z,66.13
2018-11-27T22:03:42.945Z,65.47
2018-11-27T22:06:14.509Z,64.07
2018-11-27T22:08:52.173Z,58.90
2018-11-27T22:11:23.854Z,66.97
2018-11-27T22:13:55.349Z,65.97
2018-11-27T22:16:26.796Z,61.33
2018-11-27T22:18:58.286Z,63.97
2018-11-27T22:21:29.839Z,62.60
2018-11-27T22:24:01.379Z,64.53
2018-11-27T22:26:32.997Z,64.80
2018-11-27T22:29:04.516Z,73.07
2018-11-27T22:31:36.042Z,80.83
2018-11-27T22:34:07.864Z,86.10
2018-11-27T22:36:39.443Z,73.53
2018-11-27T22:39:11.172Z,78.20
2018-11-27T22:41:42.755Z,55.33
2018-11-27T22:44:14.248Z,54.93
2018-11-27T22:46:45.744Z,53.77
2018-11-27T22:49:17.261Z,53.87
2018-11-27T22:51:48.732Z,57.27
2018-11-27T22:54:20.290Z,58.50
2018-11-27T22:56:51.878Z,60.87
2018-11-27T22:59:23.345Z,60.00
2018-11-27T23:01:54.882Z,58.37
2018-11-27T23:04:26.519Z,61.07
2018-11-27T23:06:58.077Z,60.97
2018-11-27T23:09:29.627Z,59.53
2018-11-27T23:12:01.222Z,55.77
2018-11-27T23:14:32.795Z,54.77
2018-11-27T23:17:04.301Z,50.63
2018-11-27T23:19:35.826Z,53.03
2018-11-27T23:22:07.426Z,48.80
2018-11-27T23:24:38.960Z,51.10
2018-11-27T23:27:11.354Z,49.50
2018-11-27T23:29:43.033Z,49.43
2018-11-27T23:32:14.515Z,46.93
2018-11-27T23:34:45.985Z,44.47
2018-11-27T23:37:17.543Z,49.07
2018-11-27T23:39:48.990Z,50.77
2018-11-27T23:42:20.500Z,49.80
2018-11-27T23:44:51.952Z,53.83
2018-11-27T23:47:23.506Z,46.97
2018-11-27T23:49:55.037Z,50.13
2018-11-27T23:52:26.576Z,53.70
2018-11-27T23:54:57.990Z,52.13
2018-11-27T23:57:29.487Z,52.07
